sensor_id;sensor_type;location;lat;lon;timestamp;pressure;altitude;pressure_sealevel;temperature
19568;BMP280;9930;49.240;8.548;2023-07-22T13:23:34;100222.63;;;31.33
19568;BMP280;9930;49.240;8.548;2023-07-22T13:26:03;100211.84;;;31.37
19568;BMP280;9930;49.240;8.548;2023-07-22T13:28:34;100218.72;;;31.57
19568;BMP280;9930;49.240;8.548;2023-07-22T13:31:05;100217.31;;;31.50
19568;BMP280;9930;49.240;8.548;2023-07-22T13:33:32;100202.84;;;31.41
19568;BMP280;9930;49.240;8.548;2023-07-22T13:35:58;100199.28;;;31.42
19568;BMP280;9930;49.240;8.548;2023-07-22T13:38:25;100212.22;;;31.47
19568;BMP280;9930;49.240;8.548;2023-07-22T13:40:51;100218.41;;;31.46
19568;BMP280;9930;49.240;8.548;2023-07-22T13:43:17;100211.13;;;31.51
19568;BMP280;9930;49.240;8.548;2023-07-22T13:45:42;100204.75;;;31.55
19568;BMP280;9930;49.240;8.548;2023-07-22T13:48:11;100191.50;;;31.56
19568;BMP280;9930;49.240;8.548;2023-07-22T13:50:38;100194.75;;;31.62
19568;BMP280;9930;49.240;8.548;2023-07-22T13:53:07;100215.38;;;31.71
19568;BMP280;9930;49.240;8.548;2023-07-22T13:55:33;100189.31;;;31.65
19568;BMP280;9930;49.240;8.548;2023-07-22T13:58:00;100205.44;;;31.76
19568;BMP280;9930;49.240;8.548;2023-07-22T14:00:25;100189.22;;;31.66
19568;BMP280;9930;49.240;8.548;2023-07-22T14:02:51;100186.38;;;31.71
19568;BMP280;9930;49.240;8.548;2023-07-22T14:05:17;100190.78;;;31.70
19568;BMP280;9930;49.240;8.548;2023-07-22T14:07:44;100188.69;;;31.77
19568;BMP280;9930;49.240;8.548;2023-07-22T14:10:15;100185.34;;;31.73
19568;BMP280;9930;49.240;8.548;2023-07-22T14:12:40;100173.03;;;31.74
19568;BMP280;9930;49.240;8.548;2023-07-22T14:15:07;100187.66;;;31.79
19568;BMP280;9930;49.240;8.548;2023-07-22T14:17:35;100180.09;;;31.73
19568;BMP280;9930;49.240;8.548;2023-07-22T14:20:04;100161.72;;;31.72
19568;BMP280;9930;49.240;8.548;2023-07-22T14:22:33;100182.63;;;31.75
19568;BMP280;9930;49.240;8.548;2023-07-22T14:25:00;100170.63;;;31.69
19568;BMP280;9930;49.240;8.548;2023-07-22T14:27:28;100154.81;;;31.69
19568;BMP280;9930;49.240;8.548;2023-07-22T14:29:57;100169.06;;;31.65
19568;BMP280;9930;49.240;8.548;2023-07-22T14:32:23;100174.16;;;31.68
19568;BMP280;9930;49.240;8.548;2023-07-22T14:34:51;100179.53;;;31.67
19568;BMP280;9930;49.240;8.548;2023-07-22T14:37:19;100177.69;;;31.69
19568;BMP280;9930;49.240;8.548;2023-07-22T14:39:45;100158.69;;;31.62
19568;BMP280;9930;49.240;8.548;2023-07-22T14:42:13;100168.13;;;31.66
19568;BMP280;9930;49.240;8.548;2023-07-22T14:44:38;100166.25;;;31.68
19568;BMP280;9930;49.240;8.548;2023-07-22T14:47:07;100171.47;;;31.70
19568;BMP280;9930;49.240;8.548;2023-07-22T14:49:34;100160.22;;;31.66
19568;BMP280;9930;49.240;8.548;2023-07-22T14:52:01;100168.69;;;31.73
19568;BMP280;9930;49.240;8.548;2023-07-22T14:54:30;100163.16;;;31.77
19568;BMP280;9930;49.240;8.548;2023-07-22T14:56:56;100161.38;;;31.78
19568;BMP280;9930;49.240;8.548;2023-07-22T14:59:21;100149.13;;;31.77
19568;BMP280;9930;49.240;8.548;2023-07-22T15:01:51;100149.38;;;31.72
19568;BMP280;9930;49.240;8.548;2023-07-22T15:04:20;100158.66;;;31.79
19568;BMP280;9930;49.240;8.548;2023-07-22T15:06:46;100162.16;;;31.80
19568;BMP280;9930;49.240;8.548;2023-07-22T15:09:21;100160.53;;;31.77
19568;BMP280;9930;49.240;8.548;2023-07-22T15:11:49;100150.31;;;31.71
19568;BMP280;9930;49.240;8.548;2023-07-22T15:14:17;100157.72;;;31.80
19568;BMP280;9930;49.240;8.548;2023-07-22T15:16:43;100151.94;;;31.74
19568;BMP280;9930;49.240;8.548;2023-07-22T15:19:11;100141.53;;;31.71
19568;BMP280;9930;49.240;8.548;2023-07-22T15:21:39;100143.31;;;31.70
19568;BMP280;9930;49.240;8.548;2023-07-22T15:24:05;100147.66;;;31.71
19568;BMP280;9930;49.240;8.548;2023-07-22T15:26:31;100153.25;;;31.65
19568;BMP280;9930;49.240;8.548;2023-07-22T15:28:59;100148.22;;;31.61
19568;BMP280;9930;49.240;8.548;2023-07-22T15:31:26;100149.38;;;31.55
19568;BMP280;9930;49.240;8.548;2023-07-22T15:33:51;100147.78;;;31.52
19568;BMP280;9930;49.240;8.548;2023-07-22T15:36:17;100147.09;;;31.49
19568;BMP280;9930;49.240;8.548;2023-07-22T15:38:45;100137.88;;;31.40
19568;BMP280;9930;49.240;8.548;2023-07-22T15:41:13;100146.88;;;31.36
19568;BMP280;9930;49.240;8.548;2023-07-22T15:43:39;100158.13;;;31.40
19568;BMP280;9930;49.240;8.548;2023-07-22T15:46:05;100150.22;;;31.40
19568;BMP280;9930;49.240;8.548;2023-07-22T15:48:33;100146.03;;;31.36
19568;BMP280;9930;49.240;8.548;2023-07-22T15:51:01;100151.13;;;31.39
19568;BMP280;9930;49.240;8.548;2023-07-22T15:53:27;100151.06;;;31.40
19568;BMP280;9930;49.240;8.548;2023-07-22T15:55:52;100145.03;;;31.38
19568;BMP280;9930;49.240;8.548;2023-07-22T15:58:20;100144.25;;;31.36
19568;BMP280;9930;49.240;8.548;2023-07-22T16:00:47;100142.00;;;31.29
19568;BMP280;9930;49.240;8.548;2023-07-22T16:03:13;100154.88;;;31.35
19568;BMP280;9930;49.240;8.548;2023-07-22T16:05:40;100146.19;;;31.33
19568;BMP280;9930;49.240;8.548;2023-07-22T16:08:10;100149.84;;;31.30
19568;BMP280;9930;49.240;8.548;2023-07-22T16:10:38;100150.84;;;31.28
19568;BMP280;9930;49.240;8.548;2023-07-22T16:13:04;100135.47;;;31.20
19568;BMP280;9930;49.240;8.548;2023-07-22T16:15:30;100145.81;;;31.23
19568;BMP280;9930;49.240;8.548;2023-07-22T16:17:55;100137.50;;;31.15
19568;BMP280;9930;49.240;8.548;2023-07-22T16:20:21;100141.06;;;31.14
19568;BMP280;9930;49.240;8.548;2023-07-22T16:22:49;100140.66;;;31.04
19568;BMP280;9930;49.240;8.548;2023-07-22T16:25:15;100140.97;;;30.98
19568;BMP280;9930;49.240;8.548;2023-07-22T16:27:41;100137.47;;;30.98
19568;BMP280;9930;49.240;8.548;2023-07-22T16:30:09;100140.41;;;30.91
19568;BMP280;9930;49.240;8.548;2023-07-22T16:32:34;100141.44;;;30.89
19568;BMP280;9930;49.240;8.548;2023-07-22T16:35:01;100141.66;;;30.84
19568;BMP280;9930;49.240;8.548;2023-07-22T16:37:26;100146.38;;;30.78
19568;BMP280;9930;49.240;8.548;2023-07-22T16:39:52;100144.91;;;30.72
19568;BMP280;9930;49.240;8.548;2023-07-22T16:42:22;100141.66;;;30.67
19568;BMP280;9930;49.240;8.548;2023-07-22T16:44:50;100136.63;;;30.63
19568;BMP280;9930;49.240;8.548;2023-07-22T16:47:16;100131.63;;;30.56
19568;BMP280;9930;49.240;8.548;2023-07-22T16:49:42;100136.34;;;30.50
19568;BMP280;9930;49.240;8.548;2023-07-22T16:52:07;100123.63;;;30.41
19568;BMP280;9930;49.240;8.548;2023-07-22T16:54:36;100122.16;;;30.35
19568;BMP280;9930;49.240;8.548;2023-07-22T16:57:06;100143.91;;;30.39
19568;BMP280;9930;49.240;8.548;2023-07-22T16:59:32;100129.41;;;30.30
19568;BMP280;9930;49.240;8.548;2023-07-22T17:01:58;100129.56;;;30.27
19568;BMP280;9930;49.240;8.548;2023-07-22T17:04:25;100131.34;;;30.26
19568;BMP280;9930;49.240;8.548;2023-07-22T17:06:51;100138.47;;;30.24
19568;BMP280;9930;49.240;8.548;2023-07-22T17:09:16;100132.50;;;30.21
19568;BMP280;9930;49.240;8.548;2023-07-22T17:11:43;100122.34;;;30.13
19568;BMP280;9930;49.240;8.548;2023-07-22T17:14:11;100127.81;;;30.09
19568;BMP280;9930;49.240;8.548;2023-07-22T17:16:36;100130.50;;;30.07
19568;BMP280;9930;49.240;8.548;2023-07-22T17:19:04;100125.41;;;30.04
19568;BMP280;9930;49.240;8.548;2023-07-22T17:21:32;100129.88;;;30.02
19568;BMP280;9930;49.240;8.548;2023-07-22T17:24:00;100135.22;;;30.01
19568;BMP280;9930;49.240;8.548;2023-07-22T17:26:26;100135.41;;;29.96
19568;BMP280;9930;49.240;8.548;2023-07-22T17:28:52;100125.88;;;29.93
19568;BMP280;9930;49.240;8.548;2023-07-22T17:31:20;100131.28;;;29.90
19568;BMP280;9930;49.240;8.548;2023-07-22T17:33:46;100115.94;;;29.81
19568;BMP280;9930;49.240;8.548;2023-07-22T17:36:11;100128.06;;;29.84
19568;BMP280;9930;49.240;8.548;2023-07-22T17:38:37;100120.63;;;29.75
19568;BMP280;9930;49.240;8.548;2023-07-22T17:41:07;100113.72;;;29.72
19568;BMP280;9930;49.240;8.548;2023-07-22T17:43:35;100118.91;;;29.74
19568;BMP280;9930;49.240;8.548;2023-07-22T17:46:04;100125.16;;;29.71
19568;BMP280;9930;49.240;8.548;2023-07-22T17:48:30;100115.84;;;29.64
19568;BMP280;9930;49.240;8.548;2023-07-22T17:50:56;100122.81;;;29.65
19568;BMP280;9930;49.240;8.548;2023-07-22T17:53:24;100128.28;;;29.60
19568;BMP280;9930;49.240;8.548;2023-07-22T17:55:52;100121.53;;;29.55
19568;BMP280;9930;49.240;8.548;2023-07-22T17:58:20;100114.63;;;29.52
19568;BMP280;9930;49.240;8.548;2023-07-22T18:00:45;100111.22;;;29.50
19568;BMP280;9930;49.240;8.548;2023-07-22T18:03:11;100109.66;;;29.46
19568;BMP280;9930;49.240;8.548;2023-07-22T18:05:37;100099.47;;;29.39
19568;BMP280;9930;49.240;8.548;2023-07-22T18:08:04;100110.75;;;29.41
19568;BMP280;9930;49.240;8.548;2023-07-22T18:10:30;100104.28;;;29.29
19568;BMP280;9930;49.240;8.548;2023-07-22T18:12:59;100118.91;;;29.34
19568;BMP280;9930;49.240;8.548;2023-07-22T18:15:26;100115.56;;;29.31
19568;BMP280;9930;49.240;8.548;2023-07-22T18:17:51;100106.97;;;29.27
19568;BMP280;9930;49.240;8.548;2023-07-22T18:20:17;100110.59;;;29.25
19568;BMP280;9930;49.240;8.548;2023-07-22T18:22:43;100116.03;;;29.20
19568;BMP280;9930;49.240;8.548;2023-07-22T18:25:09;100117.94;;;29.17
19568;BMP280;9930;49.240;8.548;2023-07-22T18:27:34;100106.72;;;29.13
19568;BMP280;9930;49.240;8.548;2023-07-22T18:30:01;100109.47;;;29.10
19568;BMP280;9930;49.240;8.548;2023-07-22T18:32:27;100099.31;;;29.02
19568;BMP280;9930;49.240;8.548;2023-07-22T18:35:03;100103.72;;;29.02
19568;BMP280;9930;49.240;8.548;2023-07-22T18:37:30;100099.72;;;28.93
19568;BMP280;9930;49.240;8.548;2023-07-22T18:39:58;100097.34;;;28.87
19568;BMP280;9930;49.240;8.548;2023-07-22T18:42:24;100105.22;;;28.87
19568;BMP280;9930;49.240;8.548;2023-07-22T18:44:58;100101.25;;;28.77
19568;BMP280;9930;49.240;8.548;2023-07-22T18:47:24;100109.13;;;28.77
19568;BMP280;9930;49.240;8.548;2023-07-22T18:49:50;100114.56;;;28.73
19568;BMP280;9930;49.240;8.548;2023-07-22T18:52:20;100100.91;;;28.64
19568;BMP280;9930;49.240;8.548;2023-07-22T18:54:46;100117.75;;;28.59
19568;BMP280;9930;49.240;8.548;2023-07-22T18:57:11;100114.22;;;28.60
19568;BMP280;9930;49.240;8.548;2023-07-22T18:59:40;100117.09;;;28.54
19568;BMP280;9930;49.240;8.548;2023-07-22T19:02:09;100112.97;;;28.48
19568;BMP280;9930;49.240;8.548;2023-07-22T19:04:37;100115.72;;;28.45
19568;BMP280;9930;49.240;8.548;2023-07-22T19:07:06;100113.28;;;28.41
19568;BMP280;9930;49.240;8.548;2023-07-22T19:09:32;100116.19;;;28.33
19568;BMP280;9930;49.240;8.548;2023-07-22T19:12:01;100112.78;;;28.31
19568;BMP280;9930;49.240;8.548;2023-07-22T19:14:27;100106.22;;;28.19
19568;BMP280;9930;49.240;8.548;2023-07-22T19:16:56;100111.47;;;28.19
19568;BMP280;9930;49.240;8.548;2023-07-22T19:19:25;100107.50;;;28.09
19568;BMP280;9930;49.240;8.548;2023-07-22T19:21:56;100115.44;;;28.08
19568;BMP280;9930;49.240;8.548;2023-07-22T19:24:22;100119.22;;;28.00
19568;BMP280;9930;49.240;8.548;2023-07-22T19:26:47;100113.47;;;27.91
19568;BMP280;9930;49.240;8.548;2023-07-22T19:29:16;100120.59;;;27.87
19568;BMP280;9930;49.240;8.548;2023-07-22T19:31:41;100113.19;;;27.75
19568;BMP280;9930;49.240;8.548;2023-07-22T19:34:09;100121.84;;;27.77
19568;BMP280;9930;49.240;8.548;2023-07-22T19:36:35;100116.97;;;27.68
19568;BMP280;9930;49.240;8.548;2023-07-22T19:39:04;100119.69;;;27.65
19568;BMP280;9930;49.240;8.548;2023-07-22T19:41:34;100119.88;;;27.60
19568;BMP280;9930;49.240;8.548;2023-07-22T19:44:01;100129.53;;;27.58
19568;BMP280;9930;49.240;8.548;2023-07-22T19:46:27;100117.72;;;27.47
19568;BMP280;9930;49.240;8.548;2023-07-22T19:48:53;100122.31;;;27.40
19568;BMP280;9930;49.240;8.548;2023-07-22T19:51:19;100133.72;;;27.39
19568;BMP280;9930;49.240;8.548;2023-07-22T19:53:48;100141.75;;;27.34
19568;BMP280;9930;49.240;8.548;2023-07-22T19:56:14;100134.09;;;27.28
19568;BMP280;9930;49.240;8.548;2023-07-22T19:58:39;100134.31;;;27.22
19568;BMP280;9930;49.240;8.548;2023-07-22T20:01:07;100140.69;;;27.15
19568;BMP280;9930;49.240;8.548;2023-07-22T20:03:33;100133.88;;;27.09
19568;BMP280;9930;49.240;8.548;2023-07-22T20:06:01;100124.66;;;26.99
19568;BMP280;9930;49.240;8.548;2023-07-22T20:08:29;100125.69;;;26.94
19568;BMP280;9930;49.240;8.548;2023-07-22T20:10:59;100131.78;;;26.94
19568;BMP280;9930;49.240;8.548;2023-07-22T20:13:26;100131.13;;;26.88
19568;BMP280;9930;49.240;8.548;2023-07-22T20:15:54;100123.63;;;26.77
19568;BMP280;9930;49.240;8.548;2023-07-22T20:18:22;100127.16;;;26.76
19568;BMP280;9930;49.240;8.548;2023-07-22T20:20:48;100135.16;;;26.71
19568;BMP280;9930;49.240;8.548;2023-07-22T20:23:16;100137.06;;;26.66
19568;BMP280;9930;49.240;8.548;2023-07-22T20:25:41;100141.59;;;26.61
19568;BMP280;9930;49.240;8.548;2023-07-22T20:28:07;100140.91;;;26.56
19568;BMP280;9930;49.240;8.548;2023-07-22T20:30:35;100141.03;;;26.52
19568;BMP280;9930;49.240;8.548;2023-07-22T20:33:01;100135.16;;;26.45
19568;BMP280;9930;49.240;8.548;2023-07-22T20:35:27;100134.59;;;26.35
19568;BMP280;9930;49.240;8.548;2023-07-22T20:37:52;100137.31;;;26.31
19568;BMP280;9930;49.240;8.548;2023-07-22T20:40:18;100140.84;;;26.30
19568;BMP280;9930;49.240;8.548;2023-07-22T20:42:44;100157.47;;;26.27
19568;BMP280;9930;49.240;8.548;2023-07-22T20:45:15;100157.63;;;26.23
19568;BMP280;9930;49.240;8.548;2023-07-22T20:47:41;100151.75;;;26.14
19568;BMP280;9930;49.240;8.548;2023-07-22T20:50:07;100162.31;;;26.11
19568;BMP280;9930;49.240;8.548;2023-07-22T20:52:36;100166.72;;;26.09
19568;BMP280;9930;49.240;8.548;2023-07-22T20:55:01;100165.13;;;26.05
19568;BMP280;9930;49.240;8.548;2023-07-22T20:57:28;100162.63;;;26.01
19568;BMP280;9930;49.240;8.548;2023-07-22T20:59:56;100166.31;;;25.95
19568;BMP280;9930;49.240;8.548;2023-07-22T21:02:22;100160.38;;;25.90
19568;BMP280;9930;49.240;8.548;2023-07-22T21:04:50;100157.91;;;25.86
19568;BMP280;9930;49.240;8.548;2023-07-22T21:07:16;100159.78;;;25.80
19568;BMP280;9930;49.240;8.548;2023-07-22T21:09:46;100163.38;;;25.76
19568;BMP280;9930;49.240;8.548;2023-07-22T21:12:16;100155.63;;;25.73
19568;BMP280;9930;49.240;8.548;2023-07-22T21:14:46;100153.16;;;25.69
19568;BMP280;9930;49.240;8.548;2023-07-22T21:17:14;100146.41;;;25.60
19568;BMP280;9930;49.240;8.548;2023-07-22T21:19:40;100138.69;;;25.56
19568;BMP280;9930;49.240;8.548;2023-07-22T21:22:06;100159.50;;;25.59
19568;BMP280;9930;49.240;8.548;2023-07-22T21:24:33;100145.00;;;25.48
19568;BMP280;9930;49.240;8.548;2023-07-22T21:27:01;100155.34;;;25.52
19568;BMP280;9930;49.240;8.548;2023-07-22T21:29:27;100145.13;;;25.44
19568;BMP280;9930;49.240;8.548;2023-07-22T21:31:52;100151.13;;;25.47
19568;BMP280;9930;49.240;8.548;2023-07-22T21:34:18;100139.09;;;25.42
19568;BMP280;9930;49.240;8.548;2023-07-22T21:36:44;100145.97;;;25.44
19568;BMP280;9930;49.240;8.548;2023-07-22T21:39:09;100155.59;;;25.42
19568;BMP280;9930;49.240;8.548;2023-07-22T21:41:40;100151.28;;;25.41
19568;BMP280;9930;49.240;8.548;2023-07-22T21:44:11;100151.41;;;25.37
19568;BMP280;9930;49.240;8.548;2023-07-22T21:46:38;100154.91;;;25.36
19568;BMP280;9930;49.240;8.548;2023-07-22T21:49:06;100143.81;;;25.28
19568;BMP280;9930;49.240;8.548;2023-07-22T21:51:31;100149.88;;;25.30
19568;BMP280;9930;49.240;8.548;2023-07-22T21:54:00;100152.47;;;25.30
19568;BMP280;9930;49.240;8.548;2023-07-22T21:56:25;100137.84;;;25.24
19568;BMP280;9930;49.240;8.548;2023-07-22T21:58:51;100139.59;;;25.24
19568;BMP280;9930;49.240;8.548;2023-07-22T22:01:19;100137.00;;;25.22
19568;BMP280;9930;49.240;8.548;2023-07-22T22:03:44;100143.94;;;25.23
19568;BMP280;9930;49.240;8.548;2023-07-22T22:06:12;100144.03;;;25.20
19568;BMP280;9930;49.240;8.548;2023-07-22T22:08:38;100151.78;;;25.23
19568;BMP280;9930;49.240;8.548;2023-07-22T22:11:08;100151.06;;;25.18
19568;BMP280;9930;49.240;8.548;2023-07-22T22:13:36;100157.13;;;25.18
19568;BMP280;9930;49.240;8.548;2023-07-22T22:16:02;100151.22;;;25.12
19568;BMP280;9930;49.240;8.548;2023-07-22T22:18:28;100150.38;;;25.10
19568;BMP280;9930;49.240;8.548;2023-07-22T22:20:53;100152.03;;;25.14
19568;BMP280;9930;49.240;8.548;2023-07-22T22:23:19;100142.56;;;25.10
19568;BMP280;9930;49.240;8.548;2023-07-22T22:25:45;100140.16;;;25.02
19568;BMP280;9930;49.240;8.548;2023-07-22T22:28:17;100147.97;;;25.02
19568;BMP280;9930;49.240;8.548;2023-07-22T22:30:43;100149.81;;;24.99
19568;BMP280;9930;49.240;8.548;2023-07-22T22:33:11;100148.09;;;24.96
19568;BMP280;9930;49.240;8.548;2023-07-22T22:35:36;100149.03;;;24.94
19568;BMP280;9930;49.240;8.548;2023-07-22T22:38:04;100141.50;;;24.83
19568;BMP280;9930;49.240;8.548;2023-07-22T22:40:31;100148.31;;;24.89
19568;BMP280;9930;49.240;8.548;2023-07-22T22:42:59;100155.31;;;24.86
19568;BMP280;9930;49.240;8.548;2023-07-22T22:45:26;100157.09;;;24.84
19568;BMP280;9930;49.240;8.548;2023-07-22T22:47:55;100159.72;;;24.84
19568;BMP280;9930;49.240;8.548;2023-07-22T22:50:20;100148.47;;;24.82
19568;BMP280;9930;49.240;8.548;2023-07-22T22:52:48;100151.09;;;24.81
19568;BMP280;9930;49.240;8.548;2023-07-22T22:55:16;100147.78;;;24.74
19568;BMP280;9930;49.240;8.548;2023-07-22T22:57:42;100146.81;;;24.78
19568;BMP280;9930;49.240;8.548;2023-07-22T23:00:08;100156.41;;;24.78
19568;BMP280;9930;49.240;8.548;2023-07-22T23:02:36;100152.94;;;24.77
19568;BMP280;9930;49.240;8.548;2023-07-22T23:05:03;100141.75;;;24.72
19568;BMP280;9930;49.240;8.548;2023-07-22T23:07:29;100155.56;;;24.76
19568;BMP280;9930;49.240;8.548;2023-07-22T23:09:55;100153.00;;;24.74
19568;BMP280;9930;49.240;8.548;2023-07-22T23:12:21;100151.34;;;24.72
19568;BMP280;9930;49.240;8.548;2023-07-22T23:14:47;100141.91;;;24.66
19568;BMP280;9930;49.240;8.548;2023-07-22T23:17:16;100139.38;;;24.63
19568;BMP280;9930;49.240;8.548;2023-07-22T23:19:43;100144.63;;;24.62
19568;BMP280;9930;49.240;8.548;2023-07-22T23:22:08;100154.19;;;24.61
19568;BMP280;9930;49.240;8.548;2023-07-22T23:24:36;100147.34;;;24.57
19568;BMP280;9930;49.240;8.548;2023-07-22T23:27:05;100146.69;;;24.47
19568;BMP280;9930;49.240;8.548;2023-07-22T23:29:31;100151.00;;;24.50
19568;BMP280;9930;49.240;8.548;2023-07-22T23:32:00;100145.13;;;24.40
19568;BMP280;9930;49.240;8.548;2023-07-22T23:34:28;100148.63;;;24.39
19568;BMP280;9930;49.240;8.548;2023-07-22T23:36:57;100142.66;;;24.34
19568;BMP280;9930;49.240;8.548;2023-07-22T23:39:25;100148.84;;;24.30
19568;BMP280;9930;49.240;8.548;2023-07-22T23:41:53;100143.72;;;24.24
19568;BMP280;9930;49.240;8.548;2023-07-22T23:44:23;100139.53;;;24.18
19568;BMP280;9930;49.240;8.548;2023-07-22T23:46:49;100134.44;;;24.12
19568;BMP280;9930;49.240;8.548;2023-07-22T23:49:15;100126.84;;;24.03
19568;BMP280;9930;49.240;8.548;2023-07-22T23:51:41;100125.09;;;24.04
19568;BMP280;9930;49.240;8.548;2023-07-22T23:54:09;100132.91;;;24.04
19568;BMP280;9930;49.240;8.548;2023-07-22T23:56:34;100125.22;;;23.98
19568;BMP280;9930;49.240;8.548;2023-07-22T23:59:01;100119.28;;;23.91
